sensor_id;sensor_type;location;lat;lon;timestamp;pressure;altitude;pressure_sealevel;temperature;humidity
7990;BME280;4040;42.848;23.034;2023-02-18T00:00:59;95692.63;;;1.22;100.00
7990;BME280;4040;42.848;23.034;2023-02-18T00:06:48;95682.53;;;1.07;100.00
7990;BME280;4040;42.848;23.034;2023-02-18T00:12:37;95679.34;;;0.93;100.00
7990;BME280;4040;42.848;23.034;2023-02-18T00:18:27;95672.38;;;0.80;100.00
7990;BME280;4040;42.848;23.034;2023-02-18T00:24:16;95659.16;;;0.72;100.00
7990;BME280;4040;42.848;23.034;2023-02-18T00:30:07;95653.34;;;0.41;100.00
7990;BME280;4040;42.848;23.034;2023-02-18T00:36:02;95654.59;;;0.43;100.00
7990;BME280;4040;42.848;23.034;2023-02-18T00:41:51;95649.28;;;0.43;100.00
7990;BME280;4040;42.848;23.034;2023-02-18T00:47:40;95644.59;;;0.49;100.00
7990;BME280;4040;42.848;23.034;2023-02-18T00:53:30;95648.03;;;0.49;100.00
7990;BME280;4040;42.848;23.034;2023-02-18T00:59:19;95627.19;;;0.31;100.00
7990;BME280;4040;42.848;23.034;2023-02-18T01:05:08;95649.13;;;0.48;100.00
7990;BME280;4040;42.848;23.034;2023-02-18T01:10:59;95645.88;;;0.80;100.00
7990;BME280;4040;42.848;23.034;2023-02-18T01:16:48;95637.00;;;1.05;100.00
7990;BME280;4040;42.848;23.034;2023-02-18T01:22:37;95616.81;;;1.13;100.00
7990;BME280;4040;42.848;23.034;2023-02-18T01:28:28;95625.16;;;1.52;100.00
7990;BME280;4040;42.848;23.034;2023-02-18T01:34:17;95631.75;;;1.46;100.00
7990;BME280;4040;42.848;23.034;2023-02-18T01:40:07;95635.97;;;1.18;100.00
7990;BME280;4040;42.848;23.034;2023-02-18T01:46:05;95643.75;;;1.23;100.00
7990;BME280;4040;42.848;23.034;2023-02-18T01:51:57;95640.81;;;1.45;100.00
7990;BME280;4040;42.848;23.034;2023-02-18T01:57:46;95644.03;;;1.51;100.00
7990;BME280;4040;42.848;23.034;2023-02-18T02:03:37;95634.66;;;1.53;100.00
7990;BME280;4040;42.848;23.034;2023-02-18T02:09:27;95634.66;;;1.53;100.00
7990;BME280;4040;42.848;23.034;2023-02-18T02:15:27;95636.16;;;1.42;100.00
7990;BME280;4040;42.848;23.034;2023-02-18T02:21:54;95622.16;;;1.33;100.00
7990;BME280;4040;42.848;23.034;2023-02-18T02:34:41;95631.75;;;1.26;100.00
7990;BME280;4040;42.848;23.034;2023-02-18T02:40:35;95631.31;;;1.15;100.00
7990;BME280;4040;42.848;23.034;2023-02-18T02:46:29;95620.03;;;0.98;100.00
7990;BME280;4040;42.848;23.034;2023-02-18T02:52:25;95623.06;;;1.37;100.00
7990;BME280;4040;42.848;23.034;2023-02-18T02:58:16;95636.38;;;1.49;100.00
7990;BME280;4040;42.848;23.034;2023-02-18T03:04:17;95630.06;;;1.42;100.00
7990;BME280;4040;42.848;23.034;2023-02-18T03:10:26;95643.38;;;1.33;100.00
7990;BME280;4040;42.848;23.034;2023-02-18T03:16:27;95649.72;;;1.20;100.00
7990;BME280;4040;42.848;23.034;2023-02-18T03:22:22;95651.91;;;1.18;100.00
7990;BME280;4040;42.848;23.034;2023-02-18T03:28:17;95590.53;;;0.41;100.00
7990;BME280;4040;42.848;23.034;2023-02-18T03:34:10;95674.94;;;0.60;100.00
7990;BME280;4040;42.848;23.034;2023-02-18T03:40:01;95678.44;;;0.43;100.00
7990;BME280;4040;42.848;23.034;2023-02-18T03:45:51;95667.44;;;0.70;100.00
7990;BME280;4040;42.848;23.034;2023-02-18T03:51:41;95680.16;;;0.85;100.00
7990;BME280;4040;42.848;23.034;2023-02-18T03:57:30;95673.28;;;0.84;100.00
7990;BME280;4040;42.848;23.034;2023-02-18T04:03:21;95666.69;;;0.99;100.00
7990;BME280;4040;42.848;23.034;2023-02-18T04:09:09;95670.88;;;1.00;100.00
7990;BME280;4040;42.848;23.034;2023-02-18T04:14:58;95655.94;;;0.95;100.00
7990;BME280;4040;42.848;23.034;2023-02-18T04:20:49;95641.50;;;1.13;100.00
7990;BME280;4040;42.848;23.034;2023-02-18T04:26:38;95641.13;;;1.23;100.00
7990;BME280;4040;42.848;23.034;2023-02-18T04:32:27;95634.19;;;1.31;100.00
7990;BME280;4040;42.848;23.034;2023-02-18T04:38:17;95647.88;;;1.41;100.00
7990;BME280;4040;42.848;23.034;2023-02-18T04:44:06;95645.16;;;1.50;100.00
7990;BME280;4040;42.848;23.034;2023-02-18T04:49:55;95668.63;;;1.39;100.00
7990;BME280;4040;42.848;23.034;2023-02-18T04:55:49;95657.31;;;1.51;100.00
7990;BME280;4040;42.848;23.034;2023-02-18T05:01:39;95659.56;;;1.81;100.00
7990;BME280;4040;42.848;23.034;2023-02-18T05:11:42;95661.38;;;1.89;100.00
7990;BME280;4040;42.848;23.034;2023-02-18T05:17:30;95649.59;;;1.78;100.00
7990;BME280;4040;42.848;23.034;2023-02-18T05:23:20;95655.50;;;1.63;100.00
7990;BME280;4040;42.848;23.034;2023-02-18T05:29:10;95666.84;;;1.72;100.00
7990;BME280;4040;42.848;23.034;2023-02-18T05:34:59;95677.31;;;1.48;100.00
7990;BME280;4040;42.848;23.034;2023-02-18T05:40:48;95671.19;;;1.27;100.00
7990;BME280;4040;42.848;23.034;2023-02-18T05:46:38;95686.03;;;0.99;100.00
7990;BME280;4040;42.848;23.034;2023-02-18T05:52:27;95677.38;;;1.11;100.00
7990;BME280;4040;42.848;23.034;2023-02-18T05:58:16;95685.09;;;1.53;100.00
7990;BME280;4040;42.848;23.034;2023-02-18T06:04:07;95667.75;;;1.76;100.00
7990;BME280;4040;42.848;23.034;2023-02-18T06:14:17;95660.44;;;2.26;100.00
7990;BME280;4040;42.848;23.034;2023-02-18T06:20:09;95656.06;;;2.54;100.00
7990;BME280;4040;42.848;23.034;2023-02-18T06:25:58;95670.50;;;2.77;100.00
7990;BME280;4040;42.848;23.034;2023-02-18T06:31:47;95661.63;;;2.97;100.00
7990;BME280;4040;42.848;23.034;2023-02-18T06:37:38;95659.53;;;3.38;100.00
7990;BME280;4040;42.848;23.034;2023-02-18T06:43:27;95661.94;;;3.67;100.00
7990;BME280;4040;42.848;23.034;2023-02-18T06:49:16;95658.13;;;3.80;100.00
7990;BME280;4040;42.848;23.034;2023-02-18T06:55:07;95658.66;;;3.86;100.00
7990;BME280;4040;42.848;23.034;2023-02-18T07:00:57;95642.72;;;4.01;100.00
7990;BME280;4040;42.848;23.034;2023-02-18T07:06:46;95639.81;;;4.34;100.00
7990;BME280;4040;42.848;23.034;2023-02-18T07:16:58;95650.44;;;5.07;100.00
7990;BME280;4040;42.848;23.034;2023-02-18T07:22:48;95657.84;;;5.79;100.00
7990;BME280;4040;42.848;23.034;2023-02-18T07:28:38;95660.50;;;6.55;100.00
7990;BME280;4040;42.848;23.034;2023-02-18T07:34:28;95669.25;;;7.42;89.33
7990;BME280;4040;42.848;23.034;2023-02-18T07:40:20;95660.94;;;9.05;74.97
7990;BME280;4040;42.848;23.034;2023-02-18T07:46:09;95664.34;;;9.49;69.42
7990;BME280;4040;42.848;23.034;2023-02-18T07:52:00;95649.69;;;9.43;67.23
7990;BME280;4040;42.848;23.034;2023-02-18T07:57:48;95666.13;;;8.87;71.49
7990;BME280;4040;42.848;23.034;2023-02-18T08:03:48;95665.47;;;9.01;71.10
7990;BME280;4040;42.848;23.034;2023-02-18T08:09:39;95642.66;;;8.15;77.75
7990;BME280;4040;42.848;23.034;2023-02-18T08:19:49;95584.69;;;8.76;84.04
7990;BME280;4040;42.848;23.034;2023-02-18T08:25:40;95626.13;;;9.80;69.10
7990;BME280;4040;42.848;23.034;2023-02-18T08:31:33;95648.19;;;11.33;63.20
7990;BME280;4040;42.848;23.034;2023-02-18T08:37:21;95643.28;;;12.56;55.69
7990;BME280;4040;42.848;23.034;2023-02-18T08:43:12;95611.84;;;12.04;55.64
7990;BME280;4040;42.848;23.034;2023-02-18T08:49:03;95619.47;;;12.27;54.45
7990;BME280;4040;42.848;23.034;2023-02-18T08:54:51;95641.34;;;14.80;47.16
7990;BME280;4040;42.848;23.034;2023-02-18T09:00:45;95629.25;;;14.84;45.18
7990;BME280;4040;42.848;23.034;2023-02-18T09:06:36;95614.41;;;17.88;39.31
7990;BME280;4040;42.848;23.034;2023-02-18T09:12:27;95613.41;;;19.33;33.78
7990;BME280;4040;42.848;23.034;2023-02-18T09:22:39;95612.78;;;21.68;28.86
7990;BME280;4040;42.848;23.034;2023-02-18T09:28:28;95619.06;;;21.08;29.30
7990;BME280;4040;42.848;23.034;2023-02-18T09:34:17;95626.31;;;21.32;29.34
7990;BME280;4040;42.848;23.034;2023-02-18T09:40:21;95620.34;;;20.52;29.71
7990;BME280;4040;42.848;23.034;2023-02-18T09:46:18;95604.31;;;22.11;28.41
7990;BME280;4040;42.848;23.034;2023-02-18T09:52:12;95593.81;;;25.16;25.15
7990;BME280;4040;42.848;23.034;2023-02-18T09:58:05;95604.47;;;24.80;25.07
7990;BME280;4040;42.848;23.034;2023-02-18T10:03:58;95599.97;;;23.51;26.33
7990;BME280;4040;42.848;23.034;2023-02-18T10:09:49;95593.78;;;21.43;29.24
7990;BME280;4040;42.848;23.034;2023-02-18T10:15:41;95591.72;;;20.44;30.04
7990;BME280;4040;42.848;23.034;2023-02-18T10:25:53;95569.69;;;19.08;32.39
7990;BME280;4040;42.848;23.034;2023-02-18T10:31:48;95568.78;;;19.61;32.60
7990;BME280;4040;42.848;23.034;2023-02-18T10:37:50;95568.69;;;19.14;32.65
7990;BME280;4040;42.848;23.034;2023-02-18T10:43:47;95544.72;;;20.88;31.02
7990;BME280;4040;42.848;23.034;2023-02-18T10:49:59;95527.47;;;19.59;33.55
7990;BME280;4040;42.848;23.034;2023-02-18T10:55:48;95504.47;;;18.35;33.39
7990;BME280;4040;42.848;23.034;2023-02-18T11:01:41;95525.75;;;17.23;36.32
7990;BME280;4040;42.848;23.034;2023-02-18T11:07:34;95517.53;;;18.40;35.36
7990;BME280;4040;42.848;23.034;2023-02-18T11:13:27;95489.47;;;18.27;35.38
7990;BME280;4040;42.848;23.034;2023-02-18T11:19:31;95437.75;;;19.79;33.44
7990;BME280;4040;42.848;23.034;2023-02-18T11:25:24;95470.41;;;21.25;31.60
7990;BME280;4040;42.848;23.034;2023-02-18T11:31:21;95468.59;;;21.31;31.09
7990;BME280;4040;42.848;23.034;2023-02-18T11:37:12;95454.88;;;23.22;29.46
7990;BME280;4040;42.848;23.034;2023-02-18T11:42:47;95422.09;;;22.77;29.00
7990;BME280;4040;42.848;23.034;2023-02-18T11:48:37;95448.59;;;24.06;28.18
7990;BME280;4040;42.848;23.034;2023-02-18T11:54:27;95426.59;;;24.21;27.53
7990;BME280;4040;42.848;23.034;2023-02-18T12:00:29;95424.53;;;23.17;28.69
7990;BME280;4040;42.848;23.034;2023-02-18T12:06:27;95422.91;;;21.01;30.88
7990;BME280;4040;42.848;23.034;2023-02-18T12:12:24;95408.13;;;19.56;32.66
7990;BME280;4040;42.848;23.034;2023-02-18T12:18:39;95396.06;;;20.18;31.37
7990;BME280;4040;42.848;23.034;2023-02-18T12:29:10;95392.72;;;17.53;34.65
7990;BME280;4040;42.848;23.034;2023-02-18T12:35:24;95387.84;;;16.72;36.27
7990;BME280;4040;42.848;23.034;2023-02-18T12:41:27;95381.38;;;16.50;36.53
7990;BME280;4040;42.848;23.034;2023-02-18T12:47:30;95370.06;;;16.67;36.66
7990;BME280;4040;42.848;23.034;2023-02-18T12:53:39;95369.28;;;16.35;37.65
7990;BME280;4040;42.848;23.034;2023-02-18T13:00:06;95373.13;;;16.37;38.04
7990;BME280;4040;42.848;23.034;2023-02-18T13:06:03;95364.81;;;16.60;38.01
7990;BME280;4040;42.848;23.034;2023-02-18T13:12:05;95312.09;;;15.90;37.56
7990;BME280;4040;42.848;23.034;2023-02-18T13:17:57;95364.63;;;16.35;37.73
7990;BME280;4040;42.848;23.034;2023-02-18T13:23:51;95359.31;;;15.96;38.20
7990;BME280;4040;42.848;23.034;2023-02-18T13:29:47;95371.03;;;15.93;39.26
7990;BME280;4040;42.848;23.034;2023-02-18T13:35:43;95366.56;;;15.83;39.28
7990;BME280;4040;42.848;23.034;2023-02-18T13:41:35;95370.16;;;15.96;39.88
7990;BME280;4040;42.848;23.034;2023-02-18T13:47:41;95357.38;;;15.77;39.41
7990;BME280;4040;42.848;23.034;2023-02-18T13:53:31;95355.47;;;15.58;40.13
7990;BME280;4040;42.848;23.034;2023-02-18T13:59:27;95359.78;;;15.36;40.80
7990;BME280;4040;42.848;23.034;2023-02-18T14:05:22;95370.69;;;15.14;41.33
7990;BME280;4040;42.848;23.034;2023-02-18T14:11:33;95367.34;;;15.06;41.38
7990;BME280;4040;42.848;23.034;2023-02-18T14:17:38;95356.09;;;15.08;41.56
7990;BME280;4040;42.848;23.034;2023-02-18T14:23:44;95357.97;;;15.11;41.74
7990;BME280;4040;42.848;23.034;2023-02-18T14:29:43;95365.25;;;14.94;41.52
7990;BME280;4040;42.848;23.034;2023-02-18T14:35:36;95369.91;;;14.94;41.47
7990;BME280;4040;42.848;23.034;2023-02-18T14:41:37;95367.09;;;14.78;42.27
7990;BME280;4040;42.848;23.034;2023-02-18T14:47:37;95365.91;;;14.79;42.11
7990;BME280;4040;42.848;23.034;2023-02-18T14:53:28;95365.78;;;14.63;42.52
7990;BME280;4040;42.848;23.034;2023-02-18T14:59:19;95359.78;;;14.52;43.03
7990;BME280;4040;42.848;23.034;2023-02-18T15:05:15;95325.38;;;14.26;43.52
7990;BME280;4040;42.848;23.034;2023-02-18T15:11:05;95351.66;;;14.29;43.40
7990;BME280;4040;42.848;23.034;2023-02-18T15:16:57;95345.69;;;14.11;43.82
7990;BME280;4040;42.848;23.034;2023-02-18T15:22:47;95339.84;;;13.89;44.85
7990;BME280;4040;42.848;23.034;2023-02-18T15:28:40;95330.06;;;13.69;46.22
7990;BME280;4040;42.848;23.034;2023-02-18T15:34:35;95325.19;;;13.30;47.33
7990;BME280;4040;42.848;23.034;2023-02-18T15:40:26;95300.13;;;12.93;48.46
7990;BME280;4040;42.848;23.034;2023-02-18T15:46:17;95295.72;;;12.72;52.00
7990;BME280;4040;42.848;23.034;2023-02-18T15:52:07;95306.16;;;12.30;54.75
7990;BME280;4040;42.848;23.034;2023-02-18T15:57:59;95312.06;;;11.67;56.76
7990;BME280;4040;42.848;23.034;2023-02-18T16:03:48;95305.16;;;11.59;58.14
7990;BME280;4040;42.848;23.034;2023-02-18T16:09:39;95250.00;;;11.02;59.35
7990;BME280;4040;42.848;23.034;2023-02-18T16:15:30;95314.63;;;11.13;60.95
7990;BME280;4040;42.848;23.034;2023-02-18T16:21:28;95311.72;;;10.65;62.80
7990;BME280;4040;42.848;23.034;2023-02-18T16:31:43;95328.72;;;9.99;69.28
7990;BME280;4040;42.848;23.034;2023-02-18T16:37:32;95338.28;;;9.66;71.09
7990;BME280;4040;42.848;23.034;2023-02-18T16:43:27;95330.91;;;9.31;77.46
7990;BME280;4040;42.848;23.034;2023-02-18T16:49:20;95341.97;;;9.12;84.66
7990;BME280;4040;42.848;23.034;2023-02-18T16:55:15;95343.47;;;9.06;87.65
7990;BME280;4040;42.848;23.034;2023-02-18T17:01:05;95322.97;;;8.67;90.41
7990;BME280;4040;42.848;23.034;2023-02-18T17:06:55;95343.69;;;8.70;91.39
7990;BME280;4040;42.848;23.034;2023-02-18T17:12:44;95331.28;;;8.41;91.04
7990;BME280;4040;42.848;23.034;2023-02-18T17:18:33;95338.25;;;8.02;92.90
7990;BME280;4040;42.848;23.034;2023-02-18T17:24:23;95339.97;;;7.77;97.75
7990;BME280;4040;42.848;23.034;2023-02-18T17:34:34;95333.19;;;7.14;100.00
7990;BME280;4040;42.848;23.034;2023-02-18T17:40:28;95337.13;;;6.90;100.00
7990;BME280;4040;42.848;23.034;2023-02-18T17:46:18;95325.81;;;6.71;100.00
7990;BME280;4040;42.848;23.034;2023-02-18T17:52:12;95330.88;;;6.79;100.00
7990;BME280;4040;42.848;23.034;2023-02-18T17:58:08;95338.69;;;6.62;100.00
7990;BME280;4040;42.848;23.034;2023-02-18T18:03:57;95328.25;;;6.83;100.00
7990;BME280;4040;42.848;23.034;2023-02-18T18:09:45;95324.28;;;6.70;100.00
7990;BME280;4040;42.848;23.034;2023-02-18T18:15:39;95311.28;;;6.72;100.00
7990;BME280;4040;42.848;23.034;2023-02-18T18:21:30;95301.31;;;6.69;100.00
7990;BME280;4040;42.848;23.034;2023-02-18T18:27:19;95322.75;;;6.72;100.00
7990;BME280;4040;42.848;23.034;2023-02-18T18:37:31;95325.59;;;6.53;100.00
7990;BME280;4040;42.848;23.034;2023-02-18T18:43:22;95317.03;;;6.74;100.00
7990;BME280;4040;42.848;23.034;2023-02-18T18:49:11;95321.31;;;6.78;100.00
7990;BME280;4040;42.848;23.034;2023-02-18T18:55:02;95308.91;;;6.67;100.00
7990;BME280;4040;42.848;23.034;2023-02-18T19:00:53;95284.75;;;6.30;100.00
7990;BME280;4040;42.848;23.034;2023-02-18T19:06:42;95305.97;;;6.16;100.00
7990;BME280;4040;42.848;23.034;2023-02-18T19:12:32;95320.22;;;5.98;100.00
7990;BME280;4040;42.848;23.034;2023-02-18T19:18:21;95333.72;;;5.82;100.00
7990;BME280;4040;42.848;23.034;2023-02-18T19:24:10;95075.16;;;4.05;100.00
7990;BME280;4040;42.848;23.034;2023-02-18T19:30:01;95316.91;;;5.59;100.00
7990;BME280;4040;42.848;23.034;2023-02-18T19:40:14;95303.66;;;5.44;100.00
7990;BME280;4040;42.848;23.034;2023-02-18T19:46:08;95306.44;;;5.51;100.00
7990;BME280;4040;42.848;23.034;2023-02-18T19:51:59;95327.97;;;5.80;100.00
7990;BME280;4040;42.848;23.034;2023-02-18T19:57:50;95323.47;;;5.65;100.00
7990;BME280;4040;42.848;23.034;2023-02-18T20:03:41;95323.41;;;5.62;100.00
7990;BME280;4040;42.848;23.034;2023-02-18T20:09:30;95330.13;;;5.52;100.00
7990;BME280;4040;42.848;23.034;2023-02-18T20:15:21;95326.19;;;5.46;100.00
7990;BME280;4040;42.848;23.034;2023-02-18T20:21:12;95318.50;;;5.41;100.00
7990;BME280;4040;42.848;23.034;2023-02-18T20:27:01;95316.09;;;5.36;100.00
7990;BME280;4040;42.848;23.034;2023-02-18T20:32:50;95304.91;;;5.27;100.00
7990;BME280;4040;42.848;23.034;2023-02-18T20:43:02;95326.00;;;4.94;100.00
7990;BME280;4040;42.848;23.034;2023-02-18T20:48:51;95254.16;;;4.45;100.00
7990;BME280;4040;42.848;23.034;2023-02-18T20:54:40;95312.97;;;4.71;100.00
7990;BME280;4040;42.848;23.034;2023-02-18T21:00:30;95298.91;;;4.74;100.00
7990;BME280;4040;42.848;23.034;2023-02-18T21:06:21;95301.16;;;4.72;100.00
7990;BME280;4040;42.848;23.034;2023-02-18T21:12:11;95299.78;;;4.78;100.00
7990;BME280;4040;42.848;23.034;2023-02-18T21:18:01;95307.06;;;4.62;100.00
7990;BME280;4040;42.848;23.034;2023-02-18T21:23:51;95298.22;;;4.39;100.00
7990;BME280;4040;42.848;23.034;2023-02-18T21:29:40;95296.69;;;4.38;100.00
7990;BME280;4040;42.848;23.034;2023-02-18T21:35:34;95297.81;;;4.56;100.00
7990;BME280;4040;42.848;23.034;2023-02-18T21:45:44;95297.31;;;3.97;100.00
7990;BME280;4040;42.848;23.034;2023-02-18T21:51:37;95290.56;;;3.84;100.00
7990;BME280;4040;42.848;23.034;2023-02-18T21:57:45;95189.03;;;2.89;100.00
7990;BME280;4040;42.848;23.034;2023-02-18T22:03:34;95282.22;;;3.70;100.00
7990;BME280;4040;42.848;23.034;2023-02-18T22:09:25;95284.28;;;3.92;100.00
7990;BME280;4040;42.848;23.034;2023-02-18T22:15:14;95284.28;;;3.92;100.00
7990;BME280;4040;42.848;23.034;2023-02-18T22:21:06;95280.34;;;4.05;100.00
7990;BME280;4040;42.848;23.034;2023-02-18T22:26:57;95268.84;;;4.01;100.00
7990;BME280;4040;42.848;23.034;2023-02-18T22:32:47;95265.06;;;4.21;100.00
7990;BME280;4040;42.848;23.034;2023-02-18T22:38:37;95237.75;;;4.24;100.00
7990;BME280;4040;42.848;23.034;2023-02-18T22:48:50;95255.25;;;4.06;100.00
7990;BME280;4040;42.848;23.034;2023-02-18T22:54:39;95281.31;;;3.97;100.00
7990;BME280;4040;42.848;23.034;2023-02-18T23:08:32;95167.91;;;2.65;100.00
7990;BME280;4040;42.848;23.034;2023-02-18T23:14:21;95276.84;;;3.35;100.00
7990;BME280;4040;42.848;23.034;2023-02-18T23:20:10;95269.19;;;3.34;100.00
7990;BME280;4040;42.848;23.034;2023-02-18T23:26:01;95268.25;;;3.42;100.00
7990;BME280;4040;42.848;23.034;2023-02-18T23:31:50;95210.13;;;2.82;100.00
7990;BME280;4040;42.848;23.034;2023-02-18T23:37:39;95250.16;;;3.32;100.00
7990;BME280;4040;42.848;23.034;2023-02-18T23:43:47;95195.44;;;3.34;100.00
7990;BME280;4040;42.848;23.034;2023-02-18T23:49:36;95264.22;;;3.98;100.00
7990;BME280;4040;42.848;23.034;2023-02-18T23:55:25;95254.38;;;3.83;100.00
